Time;durP1;ratioP1;P1;durP2;ratioP2;P2;SDS_P1;SDS_P2;PMS_P1;PMS_P2;Temp;Humidity;BMP_temperature;BMP_pressure;BME280_temperature;BME280_humidity;BME280_pressure;Samples;Min_cycle;Max_cycle;Signal;HPM_P1;HPM_P2
2022/12/19 00:00:30;;;;;;;84.25;35.83;;;;;;;-1.87;77.88;101413.63;5031751;28;20395;-71
2022/12/19 00:02:55;;;;;;;83.30;34.67;;;;;;;-1.86;78.11;101402.88;5031106;28;20416;-71
2022/12/19 00:05:21;;;;;;;83.37;35.97;;;;;;;-1.84;77.99;101400.91;5029905;28;20414;-71
2022/12/19 00:07:47;;;;;;;80.05;35.83;;;;;;;-1.82;77.48;101398.13;5027774;28;20398;-71
2022/12/19 00:10:13;;;;;;;75.90;35.58;;;;;;;-1.81;77.48;101397.16;5034665;28;20493;-71
2022/12/19 00:12:38;;;;;;;78.70;36.30;;;;;;;-1.79;77.89;101397.84;5029822;28;20500;-71
2022/12/19 00:15:04;;;;;;;75.03;34.83;;;;;;;-1.79;77.58;101390.72;5034353;28;20418;-71
2022/12/19 00:17:30;;;;;;;80.07;36.17;;;;;;;-1.77;77.42;101390.56;5037171;28;20738;-71
2022/12/19 00:19:55;;;;;;;80.00;35.43;;;;;;;-1.77;77.45;101395.88;5036048;28;20466;-71
2022/12/19 00:22:21;;;;;;;75.68;34.78;;;;;;;-1.75;77.87;101385.97;5036715;28;20775;-71
2022/12/19 00:24:47;;;;;;;72.87;34.87;;;;;;;-1.74;77.59;101387.59;5033754;28;20428;-71
2022/12/19 00:27:12;;;;;;;84.03;35.83;;;;;;;-1.74;77.54;101375.16;5041878;28;20467;-71
2022/12/19 00:29:37;;;;;;;84.00;36.35;;;;;;;-1.75;77.54;101376.16;5035109;28;20878;-71
2022/12/19 00:32:03;;;;;;;77.53;35.80;;;;;;;-1.74;77.65;101375.16;5028943;28;20450;-71
2022/12/19 00:34:28;;;;;;;80.30;36.67;;;;;;;-1.72;77.56;101386.50;5029956;28;20409;-71
2022/12/19 00:36:53;;;;;;;81.80;39.20;;;;;;;-1.74;77.31;101392.91;5028896;28;20460;-71
2022/12/19 00:39:18;;;;;;;83.50;38.47;;;;;;;-1.74;77.65;101406.22;5032831;28;20403;-71
2022/12/19 00:41:44;;;;;;;78.60;35.67;;;;;;;-1.71;77.75;101401.44;5037254;28;20403;-71
2022/12/19 00:44:12;;;;;;;80.30;35.70;;;;;;;-1.71;77.67;101382.84;5033848;28;20413;-71
2022/12/19 00:46:37;;;;;;;78.55;34.80;;;;;;;-1.67;77.55;101381.59;5036721;28;20428;-71
2022/12/19 00:49:03;;;;;;;78.03;34.67;;;;;;;-1.64;77.43;101388.44;5038143;28;20505;-71
2022/12/19 00:51:31;;;;;;;78.63;34.87;;;;;;;-1.64;77.41;101386.63;5038520;28;20426;-71
2022/12/19 00:53:57;;;;;;;74.32;34.42;;;;;;;-1.60;77.75;101377.38;5027899;28;20772;-71
2022/12/19 00:56:29;;;;;;;79.45;35.58;;;;;;;-1.61;77.19;101372.19;5048777;28;20405;-71
2022/12/19 00:58:55;;;;;;;74.43;35.27;;;;;;;-1.58;77.42;101380.72;5032413;28;20399;-71
2022/12/19 01:01:29;;;;;;;78.50;34.83;;;;;;;-1.57;77.22;101376.25;5040358;28;20551;-71
2022/12/19 01:03:57;;;;;;;77.65;34.95;;;;;;;-1.55;77.67;101368.13;5035426;28;20405;-71
2022/12/19 01:06:23;;;;;;;79.63;35.50;;;;;;;-1.53;77.39;101377.63;5042480;28;20421;-71
2022/12/19 01:08:48;;;;;;;77.72;34.72;;;;;;;-1.53;77.59;101369.66;5028490;28;20517;-71
2022/12/19 01:11:14;;;;;;;71.15;33.95;;;;;;;-1.50;77.64;101379.16;5033491;28;21192;-71
2022/12/19 01:13:40;;;;;;;72.87;33.63;;;;;;;-1.50;77.58;101374.69;5028295;28;20417;-71
2022/12/19 01:16:08;;;;;;;74.32;35.75;;;;;;;-1.48;77.56;101366.59;5023422;28;20416;-71
2022/12/19 01:18:34;;;;;;;77.73;35.87;;;;;;;-1.47;77.52;101365.56;5031630;28;20492;-71
2022/12/19 01:21:02;;;;;;;73.55;34.80;;;;;;;-1.46;77.41;101357.47;5034653;28;20827;-71
2022/12/19 01:23:28;;;;;;;77.23;36.23;;;;;;;-1.45;77.22;101364.47;5031615;28;20413;-71
2022/12/19 01:25:54;;;;;;;74.43;33.40;;;;;;;-1.44;77.58;101367.94;5033831;28;22047;-71
2022/12/19 01:28:20;;;;;;;76.28;35.67;;;;;;;-1.43;77.36;101364.31;5036456;28;20423;-71
2022/12/19 01:30:45;;;;;;;73.00;33.57;;;;;;;-1.41;77.16;101360.50;5030941;28;20454;-71
2022/12/19 01:33:12;;;;;;;75.40;34.40;;;;;;;-1.39;77.46;101347.09;5030914;28;20443;-71
2022/12/19 01:35:38;;;;;;;75.80;36.33;;;;;;;-1.39;77.34;101350.59;5040556;28;20413;-71
2022/12/19 01:38:04;;;;;;;78.00;35.55;;;;;;;-1.37;77.70;101348.63;5032082;28;20899;-71
2022/12/19 01:40:30;;;;;;;73.93;35.60;;;;;;;-1.36;77.26;101344.13;5038458;28;20399;-71
2022/12/19 01:42:56;;;;;;;73.65;36.13;;;;;;;-1.34;77.39;101332.38;5035709;28;20419;-71
2022/12/19 01:45:26;;;;;;;71.83;34.83;;;;;;;-1.31;77.76;101331.22;5024586;28;20938;-71
2022/12/19 01:47:59;;;;;;;78.85;35.00;;;;;;;-1.31;77.23;101329.41;5038938;28;20910;-71
2022/12/19 01:50:35;;;;;;;73.95;34.22;;;;;;;-1.29;77.20;101337.25;5032300;28;20451;-71
2022/12/19 01:53:01;;;;;;;69.45;32.80;;;;;;;-1.29;77.16;101316.81;5025830;28;20492;-71
2022/12/19 01:55:27;;;;;;;76.22;34.35;;;;;;;-1.27;77.63;101317.50;5024789;28;20425;-71
2022/12/19 01:57:55;;;;;;;76.77;35.57;;;;;;;-1.25;77.99;101309.41;5037470;28;20910;-71
2022/12/19 02:00:20;;;;;;;68.70;32.95;;;;;;;-1.25;77.26;101310.19;5028879;28;20894;-71
2022/12/19 02:02:54;;;;;;;71.68;34.55;;;;;;;-1.22;77.53;101312.56;5028909;28;20460;-71
2022/12/19 02:05:20;;;;;;;74.78;34.42;;;;;;;-1.20;77.86;101309.78;5033687;28;20399;-71
2022/12/19 02:07:46;;;;;;;73.60;33.00;;;;;;;-1.21;77.54;101319.56;5035016;28;20874;-71
2022/12/19 02:10:11;;;;;;;73.60;33.10;;;;;;;-1.20;78.01;101323.06;5030229;28;20416;-71
2022/12/19 02:12:41;;;;;;;75.20;34.27;;;;;;;-1.18;78.02;101323.75;5029506;28;20427;-71
2022/12/19 02:15:08;;;;;;;71.32;33.85;;;;;;;-1.19;77.56;101333.56;5027553;28;20409;-71
2022/12/19 02:17:41;;;;;;;70.20;34.45;;;;;;;-1.18;77.46;101321.09;5021244;28;20470;-71
2022/12/19 02:20:21;;;;;;;72.78;34.30;;;;;;;-1.15;77.50;101303.00;5035241;28;20395;-71
2022/12/19 02:22:58;;;;;;;71.57;34.33;;;;;;;-1.16;77.83;101298.69;5028123;28;20408;-71
2022/12/19 02:25:48;;;;;;;75.72;33.92;;;;;;;-1.13;77.59;101313.50;5024671;28;20416;-71
2022/12/19 02:28:20;;;;;;;68.70;33.45;;;;;;;-1.11;77.54;101328.34;5035401;28;20953;-71
2022/12/19 02:31:22;;;;;;;74.35;34.90;;;;;;;-1.08;77.85;101316.56;5041580;28;20453;-71
2022/12/19 02:33:54;;;;;;;72.15;35.58;;;;;;;-1.09;77.49;101310.38;5033387;28;20425;-71
2022/12/19 02:36:36;;;;;;;72.43;34.17;;;;;;;-1.06;77.83;101318.09;5030614;28;20565;-71
2022/12/19 02:39:09;;;;;;;74.43;33.50;;;;;;;-1.02;77.60;101325.78;5031521;28;20410;-71
2022/12/19 02:41:44;;;;;;;70.77;34.27;;;;;;;-1.01;77.63;101320.28;5028528;28;20541;-71
2022/12/19 02:44:16;;;;;;;75.28;34.30;;;;;;;-1.01;77.85;101322.94;5033859;28;20885;-71
2022/12/19 02:46:43;;;;;;;78.60;35.37;;;;;;;-0.99;77.74;101339.63;5031313;28;20478;-71
2022/12/19 02:49:10;;;;;;;74.70;34.85;;;;;;;-1.00;78.12;101337.94;5020209;28;20556;-71
2022/12/19 02:51:36;;;;;;;70.88;33.47;;;;;;;-1.00;78.20;101343.25;5033661;28;20415;-71
2022/12/19 02:54:01;;;;;;;77.25;34.88;;;;;;;-1.00;78.02;101334.44;5027226;28;20413;-71
2022/12/19 02:56:45;;;;;;;79.97;37.70;;;;;;;-1.01;78.40;101340.72;5034346;28;20754;-72
2022/12/19 02:59:31;;;;;;;106.83;51.13;;;;;;;-1.01;78.36;101343.41;5033791;28;21224;-73
2022/12/19 03:02:17;;;;;;;99.97;42.13;;;;;;;-1.03;78.05;101335.56;5035663;28;20440;-71
2022/12/19 03:04:48;;;;;;;78.23;35.63;;;;;;;-1.07;78.40;101334.19;5029419;28;20947;-71
2022/12/19 03:07:32;;;;;;;80.05;36.55;;;;;;;-1.04;78.75;101331.22;5028415;28;20405;-71
2022/12/19 03:10:30;;;;;;;69.10;33.70;;;;;;;-1.07;78.79;101337.69;5033998;28;20413;-71
2022/12/19 03:13:01;;;;;;;73.95;34.45;;;;;;;-1.10;79.21;101338.00;5010275;28;20412;-71
2022/12/19 03:15:27;;;;;;;74.07;34.72;;;;;;;-1.10;78.91;101334.50;5037433;28;20407;-71
2022/12/19 03:17:58;;;;;;;71.72;34.45;;;;;;;-1.10;79.23;101334.50;5040969;28;20406;-72
2022/12/19 03:20:51;;;;;;;71.75;34.83;;;;;;;-1.09;79.03;101334.31;5030754;28;20500;-71
2022/12/19 03:23:17;;;;;;;70.65;33.70;;;;;;;-1.06;79.36;101328.75;5028055;28;20414;-71
2022/12/19 03:25:47;;;;;;;71.80;34.90;;;;;;;-1.03;79.18;101324.09;5041234;28;20413;-71
2022/12/19 03:28:29;;;;;;;75.60;34.65;;;;;;;-1.05;79.50;101317.09;5031253;28;20409;-71
2022/12/19 03:30:57;;;;;;;70.93;33.80;;;;;;;-1.02;79.51;101323.13;5032243;28;20416;-71
2022/12/19 03:33:25;;;;;;;71.20;32.80;;;;;;;-1.01;79.15;101322.13;5027276;28;20433;-71
2022/12/19 03:35:51;;;;;;;77.88;34.90;;;;;;;-1.00;78.97;101318.47;5030901;28;20498;-72
2022/12/19 03:38:19;;;;;;;75.67;35.77;;;;;;;-0.99;78.89;101314.84;5033064;28;20410;-71
2022/12/19 03:40:46;;;;;;;77.00;36.30;;;;;;;-0.98;79.22;101311.16;5032496;28;20407;-71
2022/12/19 03:43:15;;;;;;;75.28;34.28;;;;;;;-0.97;78.99;101311.03;5026691;28;20417;-71
2022/12/19 03:45:46;;;;;;;73.60;34.15;;;;;;;-0.94;79.20;101308.06;5033726;28;20782;-72
2022/12/19 03:48:19;;;;;;;78.70;34.88;;;;;;;-0.93;78.93;101306.25;5035140;28;20409;-71
2022/12/19 03:51:07;;;;;;;76.65;36.15;;;;;;;-0.90;78.83;101311.28;5038756;28;20429;-71
2022/12/19 03:53:46;;;;;;;75.53;34.97;;;;;;;-0.90;79.57;101300.63;5026433;28;20468;-72
2022/12/19 03:56:24;;;;;;;71.40;33.83;;;;;;;-0.89;79.60;101297.00;5042730;28;20462;-71
2022/12/19 03:58:57;;;;;;;79.13;36.10;;;;;;;-0.88;79.23;101301.31;5035163;28;20400;-71
2022/12/19 04:01:26;;;;;;;71.93;34.80;;;;;;;-0.87;79.08;101300.31;5050446;28;20425;-71
2022/12/19 04:03:52;;;;;;;76.87;35.40;;;;;;;-0.86;79.17;101316.16;5043857;28;20414;-72
2022/12/19 04:06:17;;;;;;;70.83;34.73;;;;;;;-0.87;79.32;101313.63;5044656;28;20509;-71
2022/12/19 04:08:43;;;;;;;78.37;35.47;;;;;;;-0.86;79.06;101317.97;5036038;28;20413;-71
2022/12/19 04:11:17;;;;;;;76.85;35.25;;;;;;;-0.83;79.10;101323.00;5028956;28;20414;-72
2022/12/19 04:13:50;;;;;;;78.35;35.88;;;;;;;-0.81;79.49;101318.34;5037478;28;20402;-71
2022/12/19 04:16:19;;;;;;;75.82;35.33;;;;;;;-0.78;78.86;101328.69;5036258;28;20498;-71
2022/12/19 04:18:50;;;;;;;71.25;33.58;;;;;;;-0.79;79.06;101316.38;5037472;28;20403;-72
2022/12/19 04:21:31;;;;;;;72.90;34.03;;;;;;;-0.79;79.27;101319.88;5032434;28;20408;-73
2022/12/19 04:24:04;;;;;;;69.95;34.60;;;;;;;-0.78;79.08;101326.03;5036240;28;20418;-72
2022/12/19 04:26:32;;;;;;;74.75;33.35;;;;;;;-0.77;78.99;101323.22;5042972;28;20440;-71
2022/12/19 04:29:02;;;;;;;74.78;34.80;;;;;;;-0.74;79.10;101316.75;5032513;28;20419;-72
2022/12/19 04:31:28;;;;;;;69.50;34.33;;;;;;;-0.74;79.55;101328.25;5036650;28;20502;-72
2022/12/19 04:33:53;;;;;;;78.33;36.00;;;;;;;-0.73;79.55;101323.75;5042883;28;20472;-72
2022/12/19 04:36:18;;;;;;;74.80;33.55;;;;;;;-0.73;79.49;101313.97;5044429;28;20475;-72
2022/12/19 04:38:44;;;;;;;71.25;35.20;;;;;;;-0.74;79.72;101319.41;5031631;28;20738;-71
2022/12/19 04:41:09;;;;;;;73.25;35.58;;;;;;;-0.72;79.95;101320.09;5041986;28;20571;-71
2022/12/19 04:43:34;;;;;;;76.77;35.57;;;;;;;-0.71;79.70;101316.47;5037934;28;20459;-72
2022/12/19 04:46:00;;;;;;;77.10;35.93;;;;;;;-0.72;80.01;101299.66;5044762;28;20416;-72
2022/12/19 04:48:26;;;;;;;81.37;37.70;;;;;;;-0.70;79.72;101311.00;5047950;28;20810;-72
2022/12/19 04:50:51;;;;;;;75.37;35.57;;;;;;;-0.70;79.45;101313.66;5035465;28;20890;-72
2022/12/19 04:53:17;;;;;;;79.70;36.37;;;;;;;-0.72;80.09;101299.66;5034754;28;20442;-72
2022/12/19 04:55:43;;;;;;;77.67;35.70;;;;;;;-0.70;80.11;101304.84;5029551;28;20427;-72
2022/12/19 04:58:08;;;;;;;73.72;34.97;;;;;;;-0.70;79.97;101300.34;5037153;28;20529;-72
2022/12/19 05:00:34;;;;;;;79.55;37.08;;;;;;;-0.69;79.75;101291.34;5030268;28;20926;-71
2022/12/19 05:02:59;;;;;;;76.78;35.75;;;;;;;-0.68;79.96;101290.38;5027209;28;20420;-72
2022/12/19 05:05:24;;;;;;;79.43;35.73;;;;;;;-0.66;79.50;101295.56;5031665;28;20415;-71
2022/12/19 05:07:50;;;;;;;80.40;37.53;;;;;;;-0.66;79.74;101283.06;5025428;28;20425;-71
2022/12/19 05:10:16;;;;;;;81.20;37.08;;;;;;;-0.66;79.68;101274.25;5024674;28;20904;-72
2022/12/19 05:12:41;;;;;;;70.05;33.90;;;;;;;-0.68;80.16;101276.22;5029881;28;20407;-72
2022/12/19 05:15:07;;;;;;;78.40;38.50;;;;;;;-0.66;80.15;101279.59;5030898;28;20501;-72
2022/12/19 05:17:32;;;;;;;77.65;35.13;;;;;;;-0.66;79.98;101268.94;5027004;28;20447;-72
2022/12/19 05:19:58;;;;;;;74.17;35.27;;;;;;;-0.67;80.42;101273.44;5029150;28;20519;-72
2022/12/19 05:22:24;;;;;;;75.17;36.93;;;;;;;-0.67;80.29;101265.44;5042095;28;20957;-72
2022/12/19 05:24:50;;;;;;;77.65;36.17;;;;;;;-0.69;80.22;101258.59;5037987;28;20410;-72
2022/12/19 05:27:15;;;;;;;76.67;36.43;;;;;;;-0.72;79.93;101262.38;5028227;28;20424;-72
2022/12/19 05:29:40;;;;;;;78.03;37.37;;;;;;;-0.72;80.28;101254.41;5029639;28;20393;-72
2022/12/19 05:32:05;;;;;;;72.07;34.23;;;;;;;-0.72;80.19;101261.53;5038237;28;20421;-73
2022/12/19 05:34:31;;;;;;;75.60;35.53;;;;;;;-0.75;80.26;101260.03;5025661;28;20399;-73
2022/12/19 05:36:56;;;;;;;84.00;38.08;;;;;;;-0.70;80.85;101267.56;5032728;28;20407;-72
2022/12/19 05:39:21;;;;;;;84.27;37.23;;;;;;;-0.67;80.71;101264.59;5029153;28;20399;-72
2022/12/19 05:41:47;;;;;;;69.77;34.30;;;;;;;-0.67;80.19;101257.44;5025647;28;20798;-72
2022/12/19 05:44:12;;;;;;;79.37;35.30;;;;;;;-0.65;80.28;101271.44;5032242;28;20408;-73
2022/12/19 05:46:37;;;;;;;78.35;35.47;;;;;;;-0.63;80.73;101276.63;5029513;28;20495;-73
2022/12/19 05:49:03;;;;;;;77.47;36.53;;;;;;;-0.62;80.15;101273.78;5021309;28;20419;-72
2022/12/19 05:51:28;;;;;;;78.60;38.43;;;;;;;-0.58;80.75;101267.19;5017470;28;20781;-73
2022/12/19 05:53:53;;;;;;;79.73;37.60;;;;;;;-0.55;80.45;101274.84;5023808;28;20988;-72
2022/12/19 05:56:21;;;;;;;77.13;36.17;;;;;;;-0.53;80.16;101267.53;5030101;28;20475;-72
2022/12/19 05:58:47;;;;;;;77.35;37.08;;;;;;;-0.48;80.39;101276.91;5034582;28;20764;-72
2022/12/19 06:01:23;;;;;;;80.83;38.90;;;;;;;-0.48;80.42;101274.25;5037035;28;20495;-73
2022/12/19 06:03:49;;;;;;;80.20;36.33;;;;;;;-0.48;80.59;101269.75;5005513;28;20420;-73
2022/12/19 06:06:32;;;;;;;78.17;36.27;;;;;;;-0.47;80.70;101268.78;5021719;28;20425;-73
2022/12/19 06:09:09;;;;;;;77.85;36.50;;;;;;;-0.45;80.14;101256.13;5026822;28;20445;-72
2022/12/19 06:11:35;;;;;;;75.97;36.25;;;;;;;-0.44;80.57;101257.81;5028432;28;20519;-72
2022/12/19 06:14:00;;;;;;;79.70;37.37;;;;;;;-0.41;80.30;101264.66;5022397;28;21005;-72
2022/12/19 06:16:25;;;;;;;77.53;36.10;;;;;;;-0.40;80.48;101253.84;5026117;28;20487;-72
2022/12/19 06:18:53;;;;;;;75.00;34.77;;;;;;;-0.37;80.55;101261.53;5031431;28;20917;-73
2022/12/19 06:21:21;;;;;;;78.93;36.13;;;;;;;-0.34;80.54;101274.53;5026334;28;20435;-72
2022/12/19 06:23:47;;;;;;;78.35;35.90;;;;;;;-0.34;80.25;101290.50;5031583;28;20388;-73
2022/12/19 06:26:14;;;;;;;84.47;36.83;;;;;;;-0.33;80.17;101286.03;5028730;28;20515;-72
2022/12/19 06:28:40;;;;;;;74.68;36.97;;;;;;;-0.33;80.64;101296.69;5032909;28;20773;-72
2022/12/19 06:31:06;;;;;;;80.83;39.70;;;;;;;-0.32;80.54;101285.84;5033574;28;20411;-72
2022/12/19 06:33:32;;;;;;;90.00;40.28;;;;;;;-0.31;80.58;101287.53;5032386;28;20418;-72
2022/12/19 06:35:58;;;;;;;83.15;39.50;;;;;;;-0.28;80.50;101278.41;5028413;28;20406;-72
2022/12/19 06:38:24;;;;;;;76.53;36.93;;;;;;;-0.26;80.50;101279.91;5032268;28;20397;-72
2022/12/19 06:43:33;;;;;;;72.43;35.08;;;;;;;-0.23;80.58;101281.44;5026616;28;20387;-73
2022/12/19 06:45:58;;;;;;;71.80;33.97;;;;;;;-0.21;80.23;101268.81;5034997;28;20413;-71
2022/12/19 06:48:25;;;;;;;75.17;35.97;;;;;;;-0.21;80.57;101272.31;5034630;28;20454;-72
2022/12/19 06:50:51;;;;;;;79.80;35.90;;;;;;;-0.21;80.27;101260.81;5022955;28;20407;-72
2022/12/19 06:53:16;;;;;;;74.67;35.67;;;;;;;-0.21;80.33;101259.00;5028341;28;20407;-72
2022/12/19 06:55:41;;;;;;;81.15;36.53;;;;;;;-0.23;80.65;101252.97;5026686;28;20460;-72
2022/12/19 06:58:06;;;;;;;75.80;35.20;;;;;;;-0.21;80.56;101251.00;5041075;28;20409;-72
2022/12/19 07:00:35;;;;;;;79.20;37.77;;;;;;;-0.20;80.64;101239.31;5034942;28;20472;-72
2022/12/19 07:03:00;;;;;;;79.78;36.90;;;;;;;-0.22;80.55;101232.50;5038992;28;20997;-72
2022/12/19 07:05:26;;;;;;;79.97;37.05;;;;;;;-0.24;80.17;101229.16;5027878;28;20503;-72
2022/12/19 07:07:51;;;;;;;73.80;35.00;;;;;;;-0.27;80.44;101246.28;5023625;28;20417;-72
2022/12/19 07:10:17;;;;;;;80.25;37.63;;;;;;;-0.28;80.79;101243.78;5031443;28;20407;-72
2022/12/19 07:12:42;;;;;;;78.63;37.42;;;;;;;-0.26;80.76;101250.59;5029915;28;20395;-72
2022/12/19 07:15:07;;;;;;;84.93;39.37;;;;;;;-0.23;80.49;101254.81;5026890;28;20404;-72
2022/12/19 07:17:33;;;;;;;86.00;39.30;;;;;;;-0.21;80.76;101264.31;5029412;28;20987;-72
2022/12/19 07:19:58;;;;;;;83.67;39.93;;;;;;;-0.17;80.69;101265.69;5028179;28;20418;-72
2022/12/19 07:22:29;;;;;;;82.13;39.90;;;;;;;-0.13;80.64;101277.66;5023848;28;20488;-72
2022/12/19 07:24:55;;;;;;;89.10;40.45;;;;;;;-0.10;80.52;101271.22;5024842;28;20418;-72
2022/12/19 07:27:21;;;;;;;84.53;39.55;;;;;;;-0.07;80.32;101273.56;5034296;28;20401;-73
2022/12/19 07:29:47;;;;;;;82.38;39.28;;;;;;;-0.03;80.19;101267.75;5035436;28;20857;-73
2022/12/19 07:32:12;;;;;;;84.83;40.07;;;;;;;0.00;80.15;101267.44;5030283;28;20434;-73
2022/12/19 07:34:37;;;;;;;82.17;38.90;;;;;;;0.04;80.13;101269.78;5025658;28;20412;-73
2022/12/19 07:37:02;;;;;;;85.13;42.03;;;;;;;0.06;80.40;101268.66;5036480;28;20459;-72
2022/12/19 07:39:28;;;;;;;88.07;43.33;;;;;;;0.08;80.09;101279.16;5031587;28;20509;-73
2022/12/19 07:41:53;;;;;;;114.30;52.65;;;;;;;0.10;80.18;101277.19;5020430;28;20421;-73
2022/12/19 07:44:18;;;;;;;86.87;39.40;;;;;;;0.13;80.09;101287.53;5028137;28;20417;-73
2022/12/19 07:46:44;;;;;;;82.03;38.97;;;;;;;0.15;80.64;101277.53;5031213;28;20438;-72
2022/12/19 07:49:09;;;;;;;85.20;38.53;;;;;;;0.15;80.58;101272.19;5027409;28;20775;-73
2022/12/19 07:51:34;;;;;;;70.88;35.38;;;;;;;0.18;80.68;101280.72;5027886;28;20854;-73
2022/12/19 07:53:59;;;;;;;77.73;37.00;;;;;;;0.20;80.20;101281.38;5019049;28;20411;-74
2022/12/19 07:56:25;;;;;;;75.57;36.17;;;;;;;0.25;80.40;101286.25;5026264;28;20758;-73
2022/12/19 07:58:51;;;;;;;73.30;35.57;;;;;;;0.26;80.21;101279.94;5031505;28;20436;-73
2022/12/19 08:01:16;;;;;;;83.30;41.05;;;;;;;0.27;80.27;101281.59;5022570;28;20516;-73
2022/12/19 08:03:42;;;;;;;82.13;38.47;;;;;;;0.29;80.11;101287.63;5027791;28;20407;-73
2022/12/19 08:06:08;;;;;;;71.37;34.23;;;;;;;0.31;80.12;101296.28;5031049;28;20407;-73
2022/12/19 08:08:34;;;;;;;86.13;38.83;;;;;;;0.33;80.08;101280.97;5031991;28;20416;-73
2022/12/19 08:11:12;;;;;;;77.07;36.92;;;;;;;0.35;80.37;101270.97;5031475;28;20997;-73
2022/12/19 08:13:37;;;;;;;97.50;43.17;;;;;;;0.34;80.67;101272.81;5032490;28;20469;-72
2022/12/19 08:16:03;;;;;;;82.10;38.13;;;;;;;0.36;80.44;101276.13;5032966;28;20902;-72
2022/12/19 08:18:28;;;;;;;73.70;36.92;;;;;;;0.42;80.20;101278.19;5030714;28;20491;-72
2022/12/19 08:20:54;;;;;;;82.53;38.90;;;;;;;0.43;80.60;101276.34;5024728;28;20442;-72
2022/12/19 08:23:22;;;;;;;76.87;37.73;;;;;;;0.46;80.26;101274.19;5025554;28;20772;-72
2022/12/19 08:25:48;;;;;;;75.33;37.40;;;;;;;0.53;80.14;101279.72;5039506;28;20516;-72
2022/12/19 08:28:16;;;;;;;76.50;38.37;;;;;;;0.58;80.49;101271.25;5037679;28;20487;-72
2022/12/19 08:30:41;;;;;;;78.53;36.30;;;;;;;0.61;80.40;101269.09;5038419;28;21197;-72
2022/12/19 08:33:07;;;;;;;75.83;37.20;;;;;;;0.64;80.38;101271.44;5024248;28;20473;-72
2022/12/19 08:35:34;;;;;;;78.13;37.15;;;;;;;0.68;80.33;101269.28;5020699;28;20888;-73
2022/12/19 08:37:59;;;;;;;73.78;38.17;;;;;;;0.75;79.81;101262.31;5017237;28;20892;-73
2022/12/19 08:40:24;;;;;;;75.47;37.77;;;;;;;0.79;79.88;101259.16;5057445;28;20457;-73
2022/12/19 08:42:50;;;;;;;75.00;37.07;;;;;;;0.88;80.25;101260.03;5029801;28;20438;-73
2022/12/19 08:45:17;;;;;;;70.47;36.53;;;;;;;0.94;79.73;101251.34;5032624;28;20415;-73
2022/12/19 08:47:45;;;;;;;71.15;37.72;;;;;;;0.97;79.91;101251.88;5030810;28;20398;-74
2022/12/19 08:50:10;;;;;;;73.60;38.23;;;;;;;1.00;79.39;101256.03;5027450;28;20543;-74
2022/12/19 08:52:36;;;;;;;90.60;45.92;;;;;;;1.03;79.88;101253.03;5029551;28;20403;-73
2022/12/19 08:55:03;;;;;;;93.03;48.38;;;;;;;1.07;79.38;101245.53;5032365;28;20481;-73
2022/12/19 08:57:28;;;;;;;92.43;47.55;;;;;;;1.11;79.39;101245.06;5022080;28;20397;-74
2022/12/19 08:59:54;;;;;;;91.83;45.40;;;;;;;1.13;79.52;101240.38;5032389;28;20414;-73
2022/12/19 09:02:19;;;;;;;92.90;43.53;;;;;;;1.17;79.61;101235.53;5031256;28;20416;-73
2022/12/19 09:04:44;;;;;;;75.25;38.78;;;;;;;1.15;79.46;101238.41;5034919;28;20407;-73
2022/12/19 09:07:10;;;;;;;78.67;38.53;;;;;;;1.15;79.41;101242.91;5030483;28;20410;-73
2022/12/19 09:09:35;;;;;;;73.27;37.53;;;;;;;1.15;79.77;101238.41;5033019;28;20408;-73
2022/12/19 09:12:00;;;;;;;73.00;37.30;;;;;;;1.19;79.49;101244.22;5042009;28;20530;-75
2022/12/19 09:14:26;;;;;;;72.22;36.55;;;;;;;1.22;79.28;101243.91;5029079;28;20431;-75
2022/12/19 09:16:51;;;;;;;74.97;36.70;;;;;;;1.26;79.21;101238.06;5025244;28;20845;-74
2022/12/19 09:19:16;;;;;;;73.97;36.83;;;;;;;1.28;79.60;101236.06;5039936;28;20402;-74
2022/12/19 09:21:42;;;;;;;88.13;41.87;;;;;;;1.30;79.54;101234.06;5029601;28;20413;-73
2022/12/19 09:24:09;;;;;;;82.60;40.97;;;;;;;1.35;79.16;101228.22;5026744;28;20406;-73
2022/12/19 09:26:37;;;;;;;86.87;40.33;;;;;;;1.38;79.37;101222.56;5027030;28;20801;-72
2022/12/19 09:29:03;;;;;;;85.50;41.50;;;;;;;1.42;79.23;101219.38;5032314;28;20496;-74
2022/12/19 09:31:28;;;;;;;76.77;38.33;;;;;;;1.47;78.96;101218.88;5022572;28;20427;-73
2022/12/19 09:33:53;;;;;;;84.23;42.83;;;;;;;1.53;78.85;101221.72;5018585;28;20411;-74
2022/12/19 09:36:22;;;;;;;82.93;40.73;;;;;;;1.61;78.83;101230.72;5022248;28;20483;-74
2022/12/19 09:38:48;;;;;;;86.20;43.10;;;;;;;1.69;78.79;101225.38;5029112;28;20397;-73
2022/12/19 09:41:22;;;;;;;84.80;42.28;;;;;;;1.76;78.68;101219.19;5034252;28;20417;-73
2022/12/19 09:44:26;;;;;;;79.50;40.33;;;;;;;1.83;78.40;101206.81;5028769;28;25102;-74
2022/12/19 09:46:55;;;;;;;76.50;40.30;;;;;;;1.96;78.38;101212.47;5015690;28;25100;-73
2022/12/19 09:49:28;;;;;;;73.07;38.33;;;;;;;2.06;77.52;101210.44;5027774;28;20501;-73
2022/12/19 09:52:06;;;;;;;80.63;41.63;;;;;;;2.17;77.50;101214.59;5030165;28;20423;-73
2022/12/19 09:54:42;;;;;;;84.88;42.25;;;;;;;2.25;77.49;101214.53;5027866;28;20479;-73
2022/12/19 09:57:19;;;;;;;88.80;44.27;;;;;;;2.35;77.17;101219.69;5038150;28;20511;-73
2022/12/19 09:59:50;;;;;;;92.85;43.50;;;;;;;2.43;77.02;101227.69;5029316;28;20402;-74
2022/12/19 10:02:35;;;;;;;81.97;44.97;;;;;;;2.50;77.01;101209.94;5031090;28;20420;-74
2022/12/19 10:05:11;;;;;;;76.88;40.40;;;;;;;2.55;76.84;101204.88;5055958;28;20395;-73
2022/12/19 10:07:36;;;;;;;79.22;41.10;;;;;;;2.58;76.90;101207.22;5022054;28;21121;-74
2022/12/19 10:10:02;;;;;;;72.53;38.58;;;;;;;2.59;76.62;101200.88;5031435;28;20410;-75
2022/12/19 10:12:52;;;;;;;82.40;42.65;;;;;;;2.63;76.63;101203.00;5021997;28;20453;-74
2022/12/19 10:15:17;;;;;;;68.30;36.08;;;;;;;2.65;76.55;101186.78;5029852;28;20401;-73
2022/12/19 10:18:33;;;;;;;80.33;40.00;;;;;;;2.67;76.80;101189.28;5020385;28;20399;-73
2022/12/19 10:21:24;;;;;;;72.43;37.72;;;;;;;2.68;76.59;101194.44;4995564;28;20411;-73
2022/12/19 10:24:04;;;;;;;72.03;37.38;;;;;;;2.68;76.57;101189.09;5026172;28;20403;-73
2022/12/19 10:26:55;;;;;;;78.70;39.97;;;;;;;2.70;76.34;101179.03;5031669;28;20918;-73
2022/12/19 10:30:00;;;;;;;90.97;46.05;;;;;;;2.79;76.51;101169.97;5026693;28;20407;-73
2022/12/19 10:32:56;;;;;;;82.45;44.47;;;;;;;2.89;76.13;101159.88;5028445;28;20421;-73
2022/12/19 10:35:32;;;;;;;75.30;39.13;;;;;;;2.87;76.15;101155.69;5022383;28;20452;-74
2022/12/19 10:38:18;;;;;;;67.00;36.63;;;;;;;2.84;76.46;101162.22;5035199;28;20758;-73
2022/12/19 10:40:54;;;;;;;65.05;33.90;;;;;;;2.87;76.63;101166.41;5032137;28;20416;-73
2022/12/19 10:43:47;;;;;;;69.85;37.95;;;;;;;2.90;76.42;101163.34;5037991;28;20412;-73
2022/12/19 10:46:20;;;;;;;64.93;34.90;;;;;;;2.92;76.12;101162.19;5025469;28;20444;-73
2022/12/19 10:48:48;;;;;;;68.88;36.22;;;;;;;2.99;76.22;101159.63;5028987;28;20463;-74
2022/12/19 10:51:22;;;;;;;68.50;35.37;;;;;;;3.04;76.19;101165.28;5034214;28;20937;-74
2022/12/19 10:53:56;;;;;;;71.80;37.38;;;;;;;3.07;75.82;101159.56;5030450;28;20405;-74
2022/12/19 10:56:27;;;;;;;79.60;40.53;;;;;;;3.08;76.04;101158.56;5019057;28;20548;-74
2022/12/19 10:58:57;;;;;;;68.33;39.07;;;;;;;3.08;76.21;101158.56;5028673;28;20728;-74
2022/12/19 11:01:35;;;;;;;77.55;40.22;;;;;;;3.08;75.84;101159.38;5030497;28;20399;-74
2022/12/19 11:04:25;;;;;;;72.47;38.47;;;;;;;3.03;75.98;101148.38;5033378;28;20508;-74
2022/12/19 11:06:59;;;;;;;66.47;36.47;;;;;;;3.00;76.01;101135.34;5033415;28;20403;-74
2022/12/19 11:09:28;;;;;;;70.40;37.15;;;;;;;2.96;76.04;101142.09;5026261;28;20432;-74
2022/12/19 11:12:06;;;;;;;71.13;37.30;;;;;;;2.91;76.16;101143.63;5031758;28;20888;-74
2022/12/19 11:14:32;;;;;;;73.22;38.92;;;;;;;2.87;76.49;101140.47;5025060;28;20417;-74
2022/12/19 11:16:58;;;;;;;65.85;37.22;;;;;;;2.83;76.42;101135.66;5024448;28;20463;-75
2022/12/19 11:19:28;;;;;;;71.50;36.73;;;;;;;2.79;76.84;101142.38;5033413;28;20495;-75
2022/12/19 11:22:05;;;;;;;62.95;34.13;;;;;;;2.77;76.90;101137.19;5032325;28;20409;-74
2022/12/19 11:24:38;;;;;;;64.18;34.60;;;;;;;2.77;76.92;101139.88;5028663;28;20405;-74